Jordan, MT

6:40 PM MST on January 25, 2015 (GMT -0700)
RAWS KING COULEE MT US | Change Station
CLOSE
Current Station
Personal Weather Station
Location: Jordan, MT
Elevation: 2759 ft
Nearby Weather Stations

Elev 2759 ft 47.80 °N, 107.02 °W | Updated 56 minutes ago

Partly Cloudy
Partly Cloudy
51 °F
Feels Like 51 °F
N
11
Wind Variable Wind from WNW
Gusts 25.0 mph

Today
High -- | Low -- °F
--% Chance of Precip.
Yesterday
High -- | Low -- °F
Precip. -- in
7:41 AM 4:57 PM
Waxing Crescent, 37% visible
Pressure 29.94 in
Visibility 10.0 miles
Clouds Clear
Dew Point 35 °F
Humidity 55%
Rainfall 0.00 in
Snow Depth Not available.
UV 0 out of 12
Pollen .10 out of 12
Air Quality Not available.
Flu Activity Not available.
METAR KGGW 260053Z AUTO 28005KT 10SM CLR 07/02 A2987 RMK AO2 SLP136 T00670017

More Conditions Fewer Conditions

Pressure 29.94 in
Visibility 10.0 miles
Clouds Clear
Dew Point 35 °F
Humidity 55%
Rainfall 0.00 in
Snow Depth Not available.
UV 0 out of 12
Pollen .10 out of 12
Air Quality Not available.
Flu Activity Not available.
METAR KGGW 260053Z AUTO 28005KT 10SM CLR 07/02 A2987 RMK AO2 SLP136 T00670017

More Conditions Fewer Conditions

10-Day Weather Forecast

Almanac

Astronomy

Jan. 25, 2015 Rise Set
Actual Time
Civil Twilight
Nautical Twilight
Astronomical Twilight
Moon
Length of Visible Light
Length of Day
Tomorrow will be .
, % of the Moon is Illuminated

Today's Extremes

State Highs State Lows

Community

WunderPhotos

Upload Photos

1,790,045 photos uploaded!

WunderBlogs® & News

Nearby

Air Quality

  Air Quality AQ Index Pollutant
Not available.

Snow Depth

Station Depth Elevation

Earthquake Activity

City Distance Mag. Time & Date
Minimum magnitude displayed is 2.5.

Coastal Water Temperatures

Place Temperature

Nearby Weather Stations